createdAt,value
2023-01-03T00:00:25.204Z,99.82
2023-01-03T00:05:25.031Z,99.99
2023-01-03T00:10:24.975Z,99.99
2023-01-03T00:15:24.901Z,99.93
2023-01-03T00:20:24.825Z,99.35
2023-01-03T00:25:24.753Z,97.50
2023-01-03T00:30:24.709Z,97.71
2023-01-03T00:35:24.615Z,98.06
2023-01-03T00:40:24.571Z,99.65
2023-01-03T00:45:25.891Z,99.76
2023-01-03T00:50:24.426Z,99.76
2023-01-03T00:55:24.366Z,99.86
2023-01-03T01:00:24.306Z,99.76
2023-01-03T01:05:44.062Z,99.34
2023-01-03T01:10:36.462Z,99.55
2023-01-03T01:15:36.470Z,99.76
2023-01-03T01:20:36.328Z,99.81
2023-01-03T01:25:36.284Z,99.60
2023-01-03T01:30:36.182Z,99.19
2023-01-03T01:35:36.109Z,98.72
2023-01-03T01:40:36.059Z,99.04
2023-01-03T01:45:36.022Z,98.93
2023-01-03T01:50:35.908Z,99.96
2023-01-03T01:55:35.865Z,99.96
2023-01-03T02:00:35.781Z,99.55
2023-01-03T02:05:35.715Z,99.55
2023-01-03T02:10:35.663Z,99.34
2023-01-03T02:15:35.604Z,98.42
2023-01-03T02:20:35.512Z,98.62
2023-01-03T02:25:35.474Z,99.04
2023-01-03T02:30:35.367Z,98.11
2023-01-03T02:35:35.330Z,98.42
2023-01-03T02:40:35.243Z,97.80
2023-01-03T02:45:35.209Z,98.00
2023-01-03T02:50:35.114Z,97.69
2023-01-03T02:55:35.060Z,95.53
2023-01-03T03:00:34.999Z,95.74
2023-01-03T03:05:34.929Z,94.60
2023-01-03T03:10:34.847Z,95.74
2023-01-03T03:15:34.786Z,96.36
2023-01-03T03:20:34.722Z,97.08
2023-01-03T03:25:34.664Z,97.80
2023-01-03T03:30:34.578Z,98.62
2023-01-03T03:35:34.528Z,98.93
2023-01-03T03:40:34.446Z,98.36
2023-01-03T03:45:34.427Z,97.53
2023-01-03T03:50:34.358Z,96.20
2023-01-03T03:55:34.260Z,96.15
2023-01-03T04:00:34.166Z,97.69
2023-01-03T04:05:34.115Z,98.11
2023-01-03T04:10:37.636Z,98.11
2023-01-03T04:15:33.961Z,98.25
2023-01-03T04:20:33.897Z,97.85
2023-01-03T04:25:33.836Z,98.15
2023-01-03T04:30:33.795Z,98.05
2023-01-03T04:35:33.702Z,98.15
2023-01-03T04:40:33.638Z,98.15
2023-01-03T04:45:33.600Z,98.46
2023-01-03T04:50:33.507Z,97.85
2023-01-03T04:55:36.423Z,97.64
2023-01-03T05:00:33.380Z,98.36
2023-01-03T05:05:33.278Z,95.93
2023-01-03T05:10:33.251Z,97.17
2023-01-03T05:15:47.767Z,96.66
2023-01-03T05:20:40.134Z,96.18
2023-01-03T05:25:40.090Z,96.74
2023-01-03T05:30:40.000Z,97.05
2023-01-03T05:35:40.002Z,97.82
2023-01-03T05:40:41.563Z,98.02
2023-01-03T05:45:39.899Z,98.65
2023-01-03T05:50:39.792Z,98.38
2023-01-03T05:55:39.643Z,98.11
2023-01-03T06:00:39.629Z,98.74
2023-01-03T06:05:44.596Z,99.71
2023-01-03T06:10:40.460Z,99.19
2023-01-03T06:15:39.414Z,99.71
2023-01-03T06:20:39.360Z,99.55
2023-01-03T06:25:39.309Z,99.96
2023-01-03T06:30:39.202Z,99.99
2023-01-03T06:35:39.161Z,99.96
2023-01-03T06:40:45.443Z,99.99
2023-01-03T06:45:40.017Z,99.99
2023-01-03T06:50:38.947Z,99.99
2023-01-03T06:55:38.881Z,99.99
2023-01-03T07:00:38.802Z,99.99
2023-01-03T07:05:38.751Z,99.99
2023-01-03T07:10:38.660Z,99.99
2023-01-03T07:15:38.635Z,99.99
2023-01-03T07:20:38.512Z,99.99
2023-01-03T07:25:38.488Z,99.99
2023-01-03T07:30:38.388Z,99.99
2023-01-03T07:35:38.353Z,99.99
2023-01-03T07:40:38.266Z,99.99
2023-01-03T07:45:38.211Z,99.99
2023-01-03T07:50:38.137Z,99.99
2023-01-03T07:55:38.083Z,99.99
2023-01-03T08:00:37.987Z,99.99
2023-01-03T08:05:37.960Z,99.99
2023-01-03T08:10:37.864Z,99.99
2023-01-03T08:15:37.873Z,99.99
2023-01-03T08:20:37.844Z,99.71
2023-01-03T08:25:37.673Z,97.72
2023-01-03T08:30:37.596Z,95.46
2023-01-03T08:35:37.549Z,95.46
2023-01-03T08:40:41.815Z,96.53
2023-01-03T08:45:38.434Z,97.88
2023-01-03T08:50:37.327Z,98.85
2023-01-03T08:55:37.273Z,99.01
2023-01-03T09:00:37.183Z,98.10
2023-01-03T09:05:37.158Z,96.61
2023-01-03T09:10:39.676Z,89.23
2023-01-03T09:15:37.994Z,89.37
2023-01-03T09:20:36.932Z,83.66
2023-01-03T09:25:37.643Z,79.87
2023-01-03T09:30:36.820Z,76.66
2023-01-03T09:35:36.693Z,72.75
2023-01-03T09:40:36.665Z,72.17
2023-01-03T09:45:36.642Z,70.21
2023-01-03T09:50:57.336Z,70.65
2023-01-03T09:55:37.463Z,70.96
2023-01-03T10:00:36.419Z,70.28
2023-01-03T10:05:36.311Z,67.88
2023-01-03T10:10:36.247Z,66.19
2023-01-03T10:15:36.190Z,67.58
2023-01-03T10:20:36.125Z,65.39
2023-01-03T10:25:36.091Z,66.09
2023-01-03T10:30:36.012Z,65.99
2023-01-03T10:35:35.940Z,65.66
2023-01-03T10:40:35.868Z,67.84
2023-01-03T10:45:41.614Z,75.20
2023-01-03T10:50:36.721Z,78.41
2023-01-03T10:55:35.631Z,80.39
2023-01-03T11:00:35.628Z,82.45
2023-01-03T11:05:35.542Z,82.27
2023-01-03T11:10:35.420Z,82.31
2023-01-03T11:15:38.673Z,83.37
2023-01-03T11:20:35.313Z,83.88
2023-01-03T11:25:35.239Z,84.84
2023-01-03T11:30:35.167Z,84.70
2023-01-03T11:35:35.108Z,84.12
2023-01-03T11:40:35.052Z,84.74
2023-01-03T11:45:35.032Z,83.37
2023-01-03T11:50:37.433Z,85.25
2023-01-03T11:55:34.840Z,84.64
2023-01-03T12:00:34.793Z,85.66
2023-01-03T12:05:34.672Z,85.01
2023-01-03T12:10:34.641Z,84.29
2023-01-03T12:15:34.598Z,83.74
2023-01-03T12:20:34.539Z,81.24
2023-01-03T12:25:34.411Z,81.96
2023-01-03T12:30:34.354Z,81.10
2023-01-03T12:35:34.300Z,80.43
2023-01-03T12:40:34.243Z,79.37
2023-01-03T12:45:34.924Z,79.23
2023-01-03T12:50:34.183Z,79.23
2023-01-03T12:55:34.060Z,79.98
2023-01-03T13:00:33.978Z,80.39
2023-01-03T13:05:33.900Z,80.33
2023-01-03T13:10:33.854Z,81.24
2023-01-03T13:15:36.929Z,81.63
2023-01-03T13:20:33.718Z,81.52
2023-01-03T13:25:33.632Z,81.94
2023-01-03T13:30:33.564Z,82.04
2023-01-03T13:35:33.492Z,82.55
2023-01-03T13:41:08.050Z,83.06
2023-01-03T13:45:34.352Z,83.51
2023-01-03T13:50:33.287Z,82.90
2023-01-03T13:55:33.202Z,83.20
2023-01-03T14:00:33.158Z,82.76
2023-01-03T14:05:33.065Z,81.59
2023-01-03T14:10:33.022Z,81.73
2023-01-03T14:15:32.964Z,82.24
2023-01-03T14:20:32.911Z,83.00
2023-01-03T14:25:32.804Z,82.79
2023-01-03T14:30:32.747Z,83.72
2023-01-03T14:35:32.679Z,83.72
2023-01-03T14:40:32.622Z,83.20
2023-01-03T14:45:32.544Z,83.31
2023-01-03T14:50:32.483Z,82.93
2023-01-03T14:55:32.538Z,83.55
2023-01-03T15:00:33.511Z,84.20
2023-01-03T15:05:32.230Z,84.31
2023-01-03T15:10:32.207Z,84.76
2023-01-03T15:15:32.125Z,85.68
2023-01-03T15:20:32.066Z,85.82
2023-01-03T15:25:32.012Z,86.65
2023-01-03T15:30:31.947Z,86.13
2023-01-03T15:35:31.897Z,85.62
2023-01-03T15:40:31.816Z,85.52
2023-01-03T15:45:31.754Z,86.03
2023-01-03T15:50:31.686Z,86.07
2023-01-03T15:55:31.610Z,86.42
2023-01-03T16:00:31.550Z,87.24
2023-01-03T16:05:31.462Z,87.59
2023-01-03T16:10:31.429Z,87.90
2023-01-03T16:15:31.323Z,88.45
2023-01-03T16:20:31.292Z,88.90
2023-01-03T16:25:31.193Z,89.62
2023-01-03T16:30:31.121Z,90.08
2023-01-03T16:35:31.055Z,90.59
2023-01-03T16:40:31.344Z,91.25
2023-01-03T16:45:31.027Z,91.46
2023-01-03T16:50:30.884Z,91.36
2023-01-03T16:55:31.924Z,91.56
2023-01-03T17:00:30.760Z,92.02
2023-01-03T17:05:30.655Z,93.09
2023-01-03T17:10:30.599Z,93.50
2023-01-03T17:15:30.534Z,93.54
2023-01-03T17:20:30.497Z,93.54
2023-01-03T17:25:30.408Z,94.27
2023-01-03T17:30:30.380Z,94.27
2023-01-03T17:35:30.270Z,94.52
2023-01-03T17:40:34.032Z,94.52
2023-01-03T17:45:30.123Z,95.34
2023-01-03T17:50:30.080Z,95.03
2023-01-03T17:55:29.990Z,95.45
2023-01-03T18:00:29.991Z,95.34
2023-01-03T18:05:29.913Z,95.55
2023-01-03T18:10:29.812Z,95.50
2023-01-03T18:15:29.831Z,94.89
2023-01-03T18:20:29.653Z,94.47
2023-01-03T18:25:29.622Z,94.17
2023-01-03T18:30:29.517Z,94.37
2023-01-03T18:35:37.276Z,94.52
2023-01-03T18:40:30.402Z,94.52
2023-01-03T18:45:29.418Z,94.52
2023-01-03T18:50:29.242Z,94.62
2023-01-03T18:55:29.183Z,93.96
2023-01-03T19:00:29.121Z,93.85
2023-01-03T19:05:29.073Z,93.54
2023-01-03T19:10:29.002Z,93.54
2023-01-03T19:15:28.923Z,93.54
2023-01-03T19:20:28.883Z,93.44
2023-01-03T19:25:28.836Z,93.90
2023-01-03T19:30:35.268Z,93.49
2023-01-03T19:35:29.670Z,93.59
2023-01-03T19:40:28.592Z,94.00
2023-01-03T19:45:28.531Z,94.00
2023-01-03T19:50:28.441Z,94.00
2023-01-03T19:55:28.398Z,93.69
2023-01-03T20:00:28.355Z,93.69
2023-01-03T20:05:28.275Z,94.00
2023-01-03T20:10:28.181Z,93.79
2023-01-03T20:15:28.154Z,93.79
2023-01-03T20:20:28.064Z,93.90
2023-01-03T20:25:28.029Z,94.00
2023-01-03T20:30:27.952Z,94.21
2023-01-03T20:40:28.800Z,94.10
2023-01-03T20:45:27.716Z,94.10
2023-01-03T20:50:27.643Z,94.52
2023-01-03T20:55:27.625Z,94.72
2023-01-03T21:00:27.519Z,94.62
2023-01-03T21:05:27.476Z,94.93
2023-01-03T21:10:27.420Z,95.03
2023-01-03T21:15:27.314Z,94.93
2023-01-03T21:20:27.260Z,94.68
2023-01-03T21:25:27.975Z,94.27
2023-01-03T21:30:27.288Z,94.06
2023-01-03T21:35:27.066Z,93.91
2023-01-03T21:40:26.989Z,93.81
2023-01-03T21:45:26.948Z,93.81
2023-01-03T21:50:26.862Z,93.81
2023-01-03T21:55:26.786Z,94.02
2023-01-03T22:00:26.725Z,94.12
2023-01-03T22:05:26.666Z,94.02
2023-01-03T22:10:26.581Z,93.35
2023-01-03T22:15:26.540Z,92.94
2023-01-03T22:20:26.461Z,92.94
2023-01-03T22:25:26.388Z,92.74
2023-01-03T22:30:26.323Z,92.94
2023-01-03T22:35:26.278Z,92.18
2023-01-03T22:40:26.183Z,91.66
2023-01-03T22:45:26.156Z,91.15
2023-01-03T22:50:26.027Z,90.28
2023-01-03T22:55:31.746Z,90.39
2023-01-03T23:00:26.906Z,91.00
2023-01-03T23:05:25.855Z,91.00
2023-01-03T23:10:25.768Z,91.77
2023-01-03T23:15:25.738Z,91.25
2023-01-03T23:20:25.628Z,91.21
2023-01-03T23:25:25.585Z,90.69
2023-01-03T23:30:25.560Z,90.80
2023-01-03T23:35:25.448Z,90.80
2023-01-03T23:40:25.382Z,91.00
2023-01-03T23:45:25.326Z,90.90
2023-01-03T23:50:25.230Z,91.11
2023-01-03T23:55:25.226Z,91.31
